sensor_id;sensor_type;location;lat;lon;timestamp;P1;durP1;ratioP1;P2;durP2;ratioP2
14294;SDS011;7231;59.370;18.016;2023-04-01T00:01:23;2.63;;;1.40;;
14294;SDS011;7231;59.370;18.016;2023-04-01T00:03:51;1.80;;;1.33;;
14294;SDS011;7231;59.370;18.016;2023-04-01T00:06:20;2.23;;;1.30;;
14294;SDS011;7231;59.370;18.016;2023-04-01T00:08:48;5.67;;;1.80;;
14294;SDS011;7231;59.370;18.016;2023-04-01T00:11:17;2.30;;;1.30;;
14294;SDS011;7231;59.370;18.016;2023-04-01T00:13:46;3.20;;;1.57;;
14294;SDS011;7231;59.370;18.016;2023-04-01T00:16:16;2.87;;;1.60;;
14294;SDS011;7231;59.370;18.016;2023-04-01T00:18:51;3.43;;;1.70;;
14294;SDS011;7231;59.370;18.016;2023-04-01T00:21:20;4.50;;;1.50;;
14294;SDS011;7231;59.370;18.016;2023-04-01T00:23:48;2.53;;;1.50;;
14294;SDS011;7231;59.370;18.016;2023-04-01T00:26:19;3.93;;;1.40;;
14294;SDS011;7231;59.370;18.016;2023-04-01T00:28:49;2.40;;;1.30;;
14294;SDS011;7231;59.370;18.016;2023-04-01T00:31:18;2.83;;;1.80;;
14294;SDS011;7231;59.370;18.016;2023-04-01T00:33:48;3.90;;;1.43;;
14294;SDS011;7231;59.370;18.016;2023-04-01T00:36:20;2.13;;;1.67;;
14294;SDS011;7231;59.370;18.016;2023-04-01T00:38:49;1.70;;;1.20;;
14294;SDS011;7231;59.370;18.016;2023-04-01T00:41:18;2.00;;;1.63;;
14294;SDS011;7231;59.370;18.016;2023-04-01T00:43:50;3.57;;;1.70;;
14294;SDS011;7231;59.370;18.016;2023-04-01T00:46:20;3.10;;;1.57;;
14294;SDS011;7231;59.370;18.016;2023-04-01T00:48:50;2.33;;;1.30;;
14294;SDS011;7231;59.370;18.016;2023-04-01T00:51:22;1.87;;;1.30;;
14294;SDS011;7231;59.370;18.016;2023-04-01T00:53:57;4.63;;;1.40;;
14294;SDS011;7231;59.370;18.016;2023-04-01T00:56:31;3.80;;;1.60;;
14294;SDS011;7231;59.370;18.016;2023-04-01T00:59:02;2.00;;;1.50;;
14294;SDS011;7231;59.370;18.016;2023-04-01T01:01:35;2.20;;;1.60;;
14294;SDS011;7231;59.370;18.016;2023-04-01T01:04:05;2.03;;;1.43;;
14294;SDS011;7231;59.370;18.016;2023-04-01T01:06:37;1.70;;;1.30;;
14294;SDS011;7231;59.370;18.016;2023-04-01T01:12:11;1.87;;;1.33;;
14294;SDS011;7231;59.370;18.016;2023-04-01T01:14:45;5.10;;;1.67;;
14294;SDS011;7231;59.370;18.016;2023-04-01T01:17:25;2.50;;;1.50;;
14294;SDS011;7231;59.370;18.016;2023-04-01T01:20:14;2.27;;;1.33;;
14294;SDS011;7231;59.370;18.016;2023-04-01T01:23:15;2.53;;;1.60;;
14294;SDS011;7231;59.370;18.016;2023-04-01T01:26:07;3.33;;;1.33;;
14294;SDS011;7231;59.370;18.016;2023-04-01T01:28:51;3.70;;;1.80;;
14294;SDS011;7231;59.370;18.016;2023-04-01T01:31:33;3.10;;;1.70;;
14294;SDS011;7231;59.370;18.016;2023-04-01T01:34:09;3.17;;;1.43;;
14294;SDS011;7231;59.370;18.016;2023-04-01T01:36:44;2.77;;;1.43;;
14294;SDS011;7231;59.370;18.016;2023-04-01T01:39:16;2.27;;;1.60;;
14294;SDS011;7231;59.370;18.016;2023-04-01T01:41:46;3.60;;;1.40;;
14294;SDS011;7231;59.370;18.016;2023-04-01T01:44:16;3.03;;;1.80;;
14294;SDS011;7231;59.370;18.016;2023-04-01T01:46:49;3.03;;;1.40;;
14294;SDS011;7231;59.370;18.016;2023-04-01T01:49:19;1.97;;;1.50;;
14294;SDS011;7231;59.370;18.016;2023-04-01T01:51:50;2.50;;;1.40;;
14294;SDS011;7231;59.370;18.016;2023-04-01T01:54:21;3.93;;;1.63;;
14294;SDS011;7231;59.370;18.016;2023-04-01T01:56:50;1.87;;;1.20;;
14294;SDS011;7231;59.370;18.016;2023-04-01T01:59:23;1.80;;;1.57;;
14294;SDS011;7231;59.370;18.016;2023-04-01T02:01:54;4.67;;;1.50;;
14294;SDS011;7231;59.370;18.016;2023-04-01T02:04:29;3.33;;;1.43;;
14294;SDS011;7231;59.370;18.016;2023-04-01T02:06:59;2.33;;;1.43;;
14294;SDS011;7231;59.370;18.016;2023-04-01T02:09:32;1.70;;;1.40;;
14294;SDS011;7231;59.370;18.016;2023-04-01T02:12:02;3.73;;;1.60;;
14294;SDS011;7231;59.370;18.016;2023-04-01T02:14:35;2.37;;;1.40;;
14294;SDS011;7231;59.370;18.016;2023-04-01T02:17:08;1.97;;;1.53;;
14294;SDS011;7231;59.370;18.016;2023-04-01T02:19:44;2.60;;;1.33;;
14294;SDS011;7231;59.370;18.016;2023-04-01T02:22:18;1.80;;;1.50;;
14294;SDS011;7231;59.370;18.016;2023-04-01T02:24:49;3.27;;;1.57;;
14294;SDS011;7231;59.370;18.016;2023-04-01T02:27:22;5.03;;;1.63;;
14294;SDS011;7231;59.370;18.016;2023-04-01T02:29:53;2.27;;;1.33;;
14294;SDS011;7231;59.370;18.016;2023-04-01T02:32:24;3.30;;;1.40;;
14294;SDS011;7231;59.370;18.016;2023-04-01T02:34:57;5.37;;;2.20;;
14294;SDS011;7231;59.370;18.016;2023-04-01T02:37:31;3.70;;;1.30;;
14294;SDS011;7231;59.370;18.016;2023-04-01T02:40:02;2.53;;;1.53;;
14294;SDS011;7231;59.370;18.016;2023-04-01T02:42:31;4.47;;;1.60;;
14294;SDS011;7231;59.370;18.016;2023-04-01T02:45:00;3.50;;;1.47;;
14294;SDS011;7231;59.370;18.016;2023-04-01T02:47:29;2.30;;;1.60;;
14294;SDS011;7231;59.370;18.016;2023-04-01T02:49:57;2.40;;;1.60;;
14294;SDS011;7231;59.370;18.016;2023-04-01T02:52:25;3.73;;;1.63;;
14294;SDS011;7231;59.370;18.016;2023-04-01T02:54:56;2.70;;;1.50;;
14294;SDS011;7231;59.370;18.016;2023-04-01T02:57:28;1.67;;;1.33;;
14294;SDS011;7231;59.370;18.016;2023-04-01T02:59:56;2.43;;;1.30;;
14294;SDS011;7231;59.370;18.016;2023-04-01T03:02:27;4.03;;;1.57;;
14294;SDS011;7231;59.370;18.016;2023-04-01T03:04:55;2.97;;;1.57;;
14294;SDS011;7231;59.370;18.016;2023-04-01T03:07:24;2.40;;;1.10;;
14294;SDS011;7231;59.370;18.016;2023-04-01T03:09:55;2.87;;;1.70;;
14294;SDS011;7231;59.370;18.016;2023-04-01T03:12:23;3.53;;;1.80;;
14294;SDS011;7231;59.370;18.016;2023-04-01T03:14:54;2.03;;;1.67;;
14294;SDS011;7231;59.370;18.016;2023-04-01T03:17:36;2.30;;;1.40;;
14294;SDS011;7231;59.370;18.016;2023-04-01T03:20:05;4.03;;;1.60;;
14294;SDS011;7231;59.370;18.016;2023-04-01T03:22:36;3.90;;;1.50;;
14294;SDS011;7231;59.370;18.016;2023-04-01T03:25:14;3.97;;;1.80;;
14294;SDS011;7231;59.370;18.016;2023-04-01T03:27:42;2.23;;;1.33;;
14294;SDS011;7231;59.370;18.016;2023-04-01T03:30:11;4.47;;;1.40;;
14294;SDS011;7231;59.370;18.016;2023-04-01T03:32:39;3.10;;;1.80;;
14294;SDS011;7231;59.370;18.016;2023-04-01T03:35:07;4.10;;;1.60;;
14294;SDS011;7231;59.370;18.016;2023-04-01T03:37:37;3.80;;;1.70;;
14294;SDS011;7231;59.370;18.016;2023-04-01T03:40:06;2.30;;;1.40;;
14294;SDS011;7231;59.370;18.016;2023-04-01T03:42:36;6.67;;;1.87;;
14294;SDS011;7231;59.370;18.016;2023-04-01T03:45:05;3.03;;;1.30;;
14294;SDS011;7231;59.370;18.016;2023-04-01T03:47:37;3.13;;;1.57;;
14294;SDS011;7231;59.370;18.016;2023-04-01T03:50:06;2.77;;;1.43;;
14294;SDS011;7231;59.370;18.016;2023-04-01T03:52:35;2.30;;;1.53;;
14294;SDS011;7231;59.370;18.016;2023-04-01T03:55:04;2.30;;;1.67;;
14294;SDS011;7231;59.370;18.016;2023-04-01T03:57:36;2.50;;;1.60;;
14294;SDS011;7231;59.370;18.016;2023-04-01T04:00:05;3.60;;;1.97;;
14294;SDS011;7231;59.370;18.016;2023-04-01T04:02:35;1.63;;;1.33;;
14294;SDS011;7231;59.370;18.016;2023-04-01T04:05:05;5.13;;;1.83;;
14294;SDS011;7231;59.370;18.016;2023-04-01T04:07:34;2.57;;;1.70;;
14294;SDS011;7231;59.370;18.016;2023-04-01T04:10:03;4.13;;;1.67;;
14294;SDS011;7231;59.370;18.016;2023-04-01T04:12:32;3.87;;;1.90;;
14294;SDS011;7231;59.370;18.016;2023-04-01T04:15:01;4.97;;;1.83;;
14294;SDS011;7231;59.370;18.016;2023-04-01T04:17:31;5.10;;;1.50;;
14294;SDS011;7231;59.370;18.016;2023-04-01T04:19:59;3.43;;;1.90;;
14294;SDS011;7231;59.370;18.016;2023-04-01T04:22:27;2.40;;;1.50;;
14294;SDS011;7231;59.370;18.016;2023-04-01T04:24:56;4.17;;;1.70;;
14294;SDS011;7231;59.370;18.016;2023-04-01T04:27:24;3.37;;;1.77;;
14294;SDS011;7231;59.370;18.016;2023-04-01T04:29:52;2.90;;;1.70;;
14294;SDS011;7231;59.370;18.016;2023-04-01T04:32:24;3.37;;;1.73;;
14294;SDS011;7231;59.370;18.016;2023-04-01T04:34:53;4.60;;;2.20;;
14294;SDS011;7231;59.370;18.016;2023-04-01T04:37:21;4.17;;;2.00;;
14294;SDS011;7231;59.370;18.016;2023-04-01T04:39:49;2.77;;;1.50;;
14294;SDS011;7231;59.370;18.016;2023-04-01T04:42:19;3.27;;;1.73;;
14294;SDS011;7231;59.370;18.016;2023-04-01T04:44:46;2.80;;;1.73;;
14294;SDS011;7231;59.370;18.016;2023-04-01T04:47:15;2.20;;;1.47;;
14294;SDS011;7231;59.370;18.016;2023-04-01T04:49:47;4.37;;;1.63;;
14294;SDS011;7231;59.370;18.016;2023-04-01T04:52:17;3.50;;;1.70;;
14294;SDS011;7231;59.370;18.016;2023-04-01T04:54:47;3.10;;;1.87;;
14294;SDS011;7231;59.370;18.016;2023-04-01T04:57:15;2.80;;;2.03;;
14294;SDS011;7231;59.370;18.016;2023-04-01T04:59:46;3.17;;;1.57;;
14294;SDS011;7231;59.370;18.016;2023-04-01T05:02:13;2.77;;;1.57;;
14294;SDS011;7231;59.370;18.016;2023-04-01T05:04:43;3.57;;;1.87;;
14294;SDS011;7231;59.370;18.016;2023-04-01T05:07:12;3.17;;;1.43;;
14294;SDS011;7231;59.370;18.016;2023-04-01T05:09:43;2.70;;;1.43;;
14294;SDS011;7231;59.370;18.016;2023-04-01T05:12:13;5.00;;;1.50;;
14294;SDS011;7231;59.370;18.016;2023-04-01T05:14:41;3.87;;;1.50;;
14294;SDS011;7231;59.370;18.016;2023-04-01T05:17:09;2.77;;;1.53;;
14294;SDS011;7231;59.370;18.016;2023-04-01T05:19:38;4.60;;;1.80;;
14294;SDS011;7231;59.370;18.016;2023-04-01T05:22:06;2.23;;;1.57;;
14294;SDS011;7231;59.370;18.016;2023-04-01T05:24:35;3.90;;;1.90;;
14294;SDS011;7231;59.370;18.016;2023-04-01T05:27:03;2.10;;;1.50;;
14294;SDS011;7231;59.370;18.016;2023-04-01T05:29:32;6.50;;;1.73;;
14294;SDS011;7231;59.370;18.016;2023-04-01T05:32:01;6.47;;;1.73;;
14294;SDS011;7231;59.370;18.016;2023-04-01T05:34:29;3.33;;;1.57;;
14294;SDS011;7231;59.370;18.016;2023-04-01T05:36:57;3.13;;;1.80;;
14294;SDS011;7231;59.370;18.016;2023-04-01T05:39:25;2.80;;;1.40;;
14294;SDS011;7231;59.370;18.016;2023-04-01T05:41:56;1.73;;;1.40;;
14294;SDS011;7231;59.370;18.016;2023-04-01T05:44:24;2.63;;;1.60;;
14294;SDS011;7231;59.370;18.016;2023-04-01T05:46:54;2.60;;;1.67;;
14294;SDS011;7231;59.370;18.016;2023-04-01T05:49:23;4.03;;;1.40;;
14294;SDS011;7231;59.370;18.016;2023-04-01T05:51:54;3.67;;;1.40;;
14294;SDS011;7231;59.370;18.016;2023-04-01T05:54:22;1.90;;;1.30;;
14294;SDS011;7231;59.370;18.016;2023-04-01T05:56:51;3.40;;;1.33;;
14294;SDS011;7231;59.370;18.016;2023-04-01T05:59:22;1.93;;;1.50;;
14294;SDS011;7231;59.370;18.016;2023-04-01T06:01:50;2.33;;;1.40;;
14294;SDS011;7231;59.370;18.016;2023-04-01T06:04:18;2.73;;;1.43;;
14294;SDS011;7231;59.370;18.016;2023-04-01T06:06:50;3.63;;;1.53;;
14294;SDS011;7231;59.370;18.016;2023-04-01T06:09:19;1.63;;;1.03;;
14294;SDS011;7231;59.370;18.016;2023-04-01T06:12:02;3.63;;;1.43;;
14294;SDS011;7231;59.370;18.016;2023-04-01T06:14:47;1.47;;;1.30;;
14294;SDS011;7231;59.370;18.016;2023-04-01T06:17:26;1.80;;;1.30;;
14294;SDS011;7231;59.370;18.016;2023-04-01T06:20:03;1.90;;;1.30;;
14294;SDS011;7231;59.370;18.016;2023-04-01T06:22:42;3.63;;;1.23;;
14294;SDS011;7231;59.370;18.016;2023-04-01T06:31:31;2.50;;;1.17;;
14294;SDS011;7231;59.370;18.016;2023-04-01T06:34:17;3.60;;;1.20;;
14294;SDS011;7231;59.370;18.016;2023-04-01T06:36:59;2.77;;;1.40;;
14294;SDS011;7231;59.370;18.016;2023-04-01T06:39:50;2.87;;;1.17;;
14294;SDS011;7231;59.370;18.016;2023-04-01T06:42:43;2.50;;;1.10;;
14294;SDS011;7231;59.370;18.016;2023-04-01T06:45:27;2.40;;;1.17;;
14294;SDS011;7231;59.370;18.016;2023-04-01T06:48:06;4.53;;;1.30;;
14294;SDS011;7231;59.370;18.016;2023-04-01T06:50:48;2.03;;;1.37;;
14294;SDS011;7231;59.370;18.016;2023-04-01T06:53:23;3.47;;;1.10;;
14294;SDS011;7231;59.370;18.016;2023-04-01T06:56:02;3.43;;;0.97;;
14294;SDS011;7231;59.370;18.016;2023-04-01T06:58:34;5.23;;;0.90;;
14294;SDS011;7231;59.370;18.016;2023-04-01T07:01:08;7.83;;;1.30;;
14294;SDS011;7231;59.370;18.016;2023-04-01T07:03:43;2.13;;;1.07;;
14294;SDS011;7231;59.370;18.016;2023-04-01T07:06:17;1.60;;;1.07;;
14294;SDS011;7231;59.370;18.016;2023-04-01T07:08:53;2.40;;;1.20;;
14294;SDS011;7231;59.370;18.016;2023-04-01T07:11:30;2.23;;;1.10;;
14294;SDS011;7231;59.370;18.016;2023-04-01T07:14:02;3.67;;;0.97;;
14294;SDS011;7231;59.370;18.016;2023-04-01T07:16:38;3.23;;;0.90;;
14294;SDS011;7231;59.370;18.016;2023-04-01T07:19:14;4.45;;;1.25;;
14294;SDS011;7231;59.370;18.016;2023-04-01T07:21:48;3.30;;;1.13;;
14294;SDS011;7231;59.370;18.016;2023-04-01T07:24:21;4.10;;;1.52;;
14294;SDS011;7231;59.370;18.016;2023-04-01T07:26:52;4.13;;;1.35;;
14294;SDS011;7231;59.370;18.016;2023-04-01T07:29:22;4.22;;;1.38;;
14294;SDS011;7231;59.370;18.016;2023-04-01T07:32:04;3.22;;;1.10;;
14294;SDS011;7231;59.370;18.016;2023-04-01T07:34:43;4.15;;;1.30;;
14294;SDS011;7231;59.370;18.016;2023-04-01T07:37:20;4.55;;;1.40;;
14294;SDS011;7231;59.370;18.016;2023-04-01T07:39:54;2.88;;;1.00;;
14294;SDS011;7231;59.370;18.016;2023-04-01T07:42:35;3.92;;;0.90;;
14294;SDS011;7231;59.370;18.016;2023-04-01T07:45:21;2.67;;;0.90;;
14294;SDS011;7231;59.370;18.016;2023-04-01T07:47:59;4.25;;;0.98;;
14294;SDS011;7231;59.370;18.016;2023-04-01T07:50:40;4.90;;;1.33;;
14294;SDS011;7231;59.370;18.016;2023-04-01T07:53:19;4.03;;;0.98;;
14294;SDS011;7231;59.370;18.016;2023-04-01T07:55:56;5.80;;;1.00;;
14294;SDS011;7231;59.370;18.016;2023-04-01T07:58:35;0.95;;;0.57;;
14294;SDS011;7231;59.370;18.016;2023-04-01T08:01:13;4.20;;;1.17;;
14294;SDS011;7231;59.370;18.016;2023-04-01T08:03:55;6.15;;;1.30;;
14294;SDS011;7231;59.370;18.016;2023-04-01T08:06:39;2.00;;;0.95;;
14294;SDS011;7231;59.370;18.016;2023-04-01T08:09:14;4.18;;;0.90;;
14294;SDS011;7231;59.370;18.016;2023-04-01T08:11:56;1.20;;;1.10;;
14294;SDS011;7231;59.370;18.016;2023-04-01T08:14:33;3.38;;;0.90;;
14294;SDS011;7231;59.370;18.016;2023-04-01T08:17:12;2.70;;;1.02;;
14294;SDS011;7231;59.370;18.016;2023-04-01T08:19:52;2.83;;;1.20;;
14294;SDS011;7231;59.370;18.016;2023-04-01T08:22:36;2.45;;;0.98;;
14294;SDS011;7231;59.370;18.016;2023-04-01T08:25:10;2.80;;;1.00;;
14294;SDS011;7231;59.370;18.016;2023-04-01T08:27:46;4.63;;;1.33;;
14294;SDS011;7231;59.370;18.016;2023-04-01T08:30:18;3.05;;;0.85;;
14294;SDS011;7231;59.370;18.016;2023-04-01T08:32:49;3.30;;;1.00;;
14294;SDS011;7231;59.370;18.016;2023-04-01T08:35:25;3.42;;;0.95;;
14294;SDS011;7231;59.370;18.016;2023-04-01T08:38:01;3.55;;;0.93;;
14294;SDS011;7231;59.370;18.016;2023-04-01T08:40:50;3.17;;;1.10;;
14294;SDS011;7231;59.370;18.016;2023-04-01T08:46:33;2.45;;;1.00;;
14294;SDS011;7231;59.370;18.016;2023-04-01T08:49:37;1.52;;;0.75;;
14294;SDS011;7231;59.370;18.016;2023-04-01T08:52:22;4.78;;;1.00;;
14294;SDS011;7231;59.370;18.016;2023-04-01T08:58:11;2.28;;;0.90;;
14294;SDS011;7231;59.370;18.016;2023-04-01T09:01:13;3.50;;;1.02;;
14294;SDS011;7231;59.370;18.016;2023-04-01T09:03:57;2.47;;;1.10;;
14294;SDS011;7231;59.370;18.016;2023-04-01T09:06:47;3.95;;;0.95;;
14294;SDS011;7231;59.370;18.016;2023-04-01T09:09:27;5.30;;;1.45;;
14294;SDS011;7231;59.370;18.016;2023-04-01T09:12:15;2.40;;;0.75;;
14294;SDS011;7231;59.370;18.016;2023-04-01T09:18:09;5.63;;;1.05;;
14294;SDS011;7231;59.370;18.016;2023-04-01T09:20:45;4.80;;;1.10;;
14294;SDS011;7231;59.370;18.016;2023-04-01T09:23:31;3.50;;;0.95;;
14294;SDS011;7231;59.370;18.016;2023-04-01T09:29:46;3.22;;;0.98;;
14294;SDS011;7231;59.370;18.016;2023-04-01T09:32:51;1.85;;;0.75;;
14294;SDS011;7231;59.370;18.016;2023-04-01T09:35:31;2.58;;;0.70;;
14294;SDS011;7231;59.370;18.016;2023-04-01T09:38:14;2.97;;;0.80;;
14294;SDS011;7231;59.370;18.016;2023-04-01T09:40:54;1.15;;;0.50;;
14294;SDS011;7231;59.370;18.016;2023-04-01T09:43:27;2.00;;;0.50;;
14294;SDS011;7231;59.370;18.016;2023-04-01T09:46:11;3.95;;;1.35;;
14294;SDS011;7231;59.370;18.016;2023-04-01T09:48:51;5.40;;;0.82;;
14294;SDS011;7231;59.370;18.016;2023-04-01T09:51:43;3.67;;;0.57;;
14294;SDS011;7231;59.370;18.016;2023-04-01T09:54:26;6.15;;;0.80;;
14294;SDS011;7231;59.370;18.016;2023-04-01T10:00:03;3.20;;;0.55;;
14294;SDS011;7231;59.370;18.016;2023-04-01T10:02:53;3.97;;;1.10;;
14294;SDS011;7231;59.370;18.016;2023-04-01T10:05:58;2.83;;;0.77;;
14294;SDS011;7231;59.370;18.016;2023-04-01T10:12:14;5.82;;;0.60;;
14294;SDS011;7231;59.370;18.016;2023-04-01T10:18:07;3.20;;;1.10;;
14294;SDS011;7231;59.370;18.016;2023-04-01T10:21:02;1.30;;;0.55;;
14294;SDS011;7231;59.370;18.016;2023-04-01T10:23:58;4.07;;;0.55;;
14294;SDS011;7231;59.370;18.016;2023-04-01T10:26:51;3.50;;;0.60;;
14294;SDS011;7231;59.370;18.016;2023-04-01T10:32:39;3.00;;;0.45;;
14294;SDS011;7231;59.370;18.016;2023-04-01T10:41:38;4.10;;;0.90;;
14294;SDS011;7231;59.370;18.016;2023-04-01T10:44:30;1.98;;;0.50;;
14294;SDS011;7231;59.370;18.016;2023-04-01T10:47:24;3.55;;;1.00;;
14294;SDS011;7231;59.370;18.016;2023-04-01T10:50:25;1.98;;;0.70;;
14294;SDS011;7231;59.370;18.016;2023-04-01T10:53:30;5.97;;;0.80;;
14294;SDS011;7231;59.370;18.016;2023-04-01T10:56:13;2.67;;;0.80;;
14294;SDS011;7231;59.370;18.016;2023-04-01T11:05:39;6.10;;;0.73;;
14294;SDS011;7231;59.370;18.016;2023-04-01T11:24:21;2.30;;;0.52;;
14294;SDS011;7231;59.370;18.016;2023-04-01T11:27:13;1.67;;;0.50;;
14294;SDS011;7231;59.370;18.016;2023-04-01T11:30:06;2.03;;;0.88;;
14294;SDS011;7231;59.370;18.016;2023-04-01T11:32:53;4.40;;;0.70;;
14294;SDS011;7231;59.370;18.016;2023-04-01T11:35:32;1.98;;;0.60;;
14294;SDS011;7231;59.370;18.016;2023-04-01T11:38:16;2.83;;;0.50;;
14294;SDS011;7231;59.370;18.016;2023-04-01T11:40:56;2.45;;;0.52;;
14294;SDS011;7231;59.370;18.016;2023-04-01T11:43:36;2.53;;;0.40;;
14294;SDS011;7231;59.370;18.016;2023-04-01T11:46:15;3.90;;;0.57;;
14294;SDS011;7231;59.370;18.016;2023-04-01T11:48:51;2.65;;;0.60;;
14294;SDS011;7231;59.370;18.016;2023-04-01T11:54:45;1.05;;;0.50;;
14294;SDS011;7231;59.370;18.016;2023-04-01T12:00:30;1.27;;;0.40;;
14294;SDS011;7231;59.370;18.016;2023-04-01T12:03:21;1.20;;;0.40;;
14294;SDS011;7231;59.370;18.016;2023-04-01T12:06:13;0.82;;;0.40;;
14294;SDS011;7231;59.370;18.016;2023-04-01T12:08:49;1.42;;;0.70;;
14294;SDS011;7231;59.370;18.016;2023-04-01T12:11:26;0.55;;;0.30;;
14294;SDS011;7231;59.370;18.016;2023-04-01T12:14:02;3.53;;;0.90;;
14294;SDS011;7231;59.370;18.016;2023-04-01T12:16:57;1.88;;;0.40;;
14294;SDS011;7231;59.370;18.016;2023-04-01T12:19:36;9.90;;;0.77;;
14294;SDS011;7231;59.370;18.016;2023-04-01T12:25:19;1.38;;;0.47;;
14294;SDS011;7231;59.370;18.016;2023-04-01T12:28:00;1.85;;;0.40;;
14294;SDS011;7231;59.370;18.016;2023-04-01T12:30:49;3.47;;;0.60;;
14294;SDS011;7231;59.370;18.016;2023-04-01T12:33:31;2.47;;;0.65;;
14294;SDS011;7231;59.370;18.016;2023-04-01T12:36:13;1.33;;;0.50;;
14294;SDS011;7231;59.370;18.016;2023-04-01T12:38:51;0.95;;;0.20;;
14294;SDS011;7231;59.370;18.016;2023-04-01T12:41:38;5.15;;;0.60;;
14294;SDS011;7231;59.370;18.016;2023-04-01T12:44:26;1.73;;;0.45;;
14294;SDS011;7231;59.370;18.016;2023-04-01T12:47:16;0.90;;;0.40;;
14294;SDS011;7231;59.370;18.016;2023-04-01T12:52:58;1.10;;;0.50;;
14294;SDS011;7231;59.370;18.016;2023-04-01T12:55:39;1.33;;;0.35;;
14294;SDS011;7231;59.370;18.016;2023-04-01T12:58:20;3.65;;;0.50;;
14294;SDS011;7231;59.370;18.016;2023-04-01T13:01:35;3.75;;;0.60;;
14294;SDS011;7231;59.370;18.016;2023-04-01T13:04:30;3.47;;;0.80;;
14294;SDS011;7231;59.370;18.016;2023-04-01T13:10:32;1.35;;;0.32;;
14294;SDS011;7231;59.370;18.016;2023-04-01T13:13:23;2.67;;;0.55;;
14294;SDS011;7231;59.370;18.016;2023-04-01T13:16:17;2.58;;;0.60;;
14294;SDS011;7231;59.370;18.016;2023-04-01T13:18:52;1.38;;;0.40;;
14294;SDS011;7231;59.370;18.016;2023-04-01T13:21:30;2.78;;;0.60;;
14294;SDS011;7231;59.370;18.016;2023-04-01T13:24:06;1.42;;;0.25;;
14294;SDS011;7231;59.370;18.016;2023-04-01T13:26:55;0.73;;;0.40;;
14294;SDS011;7231;59.370;18.016;2023-04-01T13:29:31;3.50;;;0.50;;
14294;SDS011;7231;59.370;18.016;2023-04-01T13:32:10;1.98;;;0.40;;
14294;SDS011;7231;59.370;18.016;2023-04-01T13:34:52;1.45;;;0.40;;
14294;SDS011;7231;59.370;18.016;2023-04-01T13:37:37;0.95;;;0.50;;
14294;SDS011;7231;59.370;18.016;2023-04-01T13:40:23;0.82;;;0.63;;
14294;SDS011;7231;59.370;18.016;2023-04-01T13:43:00;1.33;;;0.73;;
14294;SDS011;7231;59.370;18.016;2023-04-01T13:45:34;4.53;;;0.43;;
14294;SDS011;7231;59.370;18.016;2023-04-01T13:48:18;1.13;;;0.50;;
14294;SDS011;7231;59.370;18.016;2023-04-01T13:51:08;2.33;;;0.47;;
14294;SDS011;7231;59.370;18.016;2023-04-01T13:54:03;2.67;;;0.60;;
14294;SDS011;7231;59.370;18.016;2023-04-01T13:56:56;1.33;;;0.50;;
14294;SDS011;7231;59.370;18.016;2023-04-01T14:02:49;1.98;;;0.60;;
14294;SDS011;7231;59.370;18.016;2023-04-01T14:05:32;4.38;;;0.70;;
14294;SDS011;7231;59.370;18.016;2023-04-01T14:08:26;0.98;;;0.40;;
14294;SDS011;7231;59.370;18.016;2023-04-01T14:11:07;1.73;;;0.60;;
14294;SDS011;7231;59.370;18.016;2023-04-01T14:13:43;2.10;;;0.63;;
14294;SDS011;7231;59.370;18.016;2023-04-01T14:19:24;4.65;;;0.52;;
14294;SDS011;7231;59.370;18.016;2023-04-01T14:22:10;1.02;;;0.40;;
14294;SDS011;7231;59.370;18.016;2023-04-01T14:24:59;2.72;;;0.63;;
14294;SDS011;7231;59.370;18.016;2023-04-01T14:27:51;1.67;;;0.50;;
14294;SDS011;7231;59.370;18.016;2023-04-01T14:30:29;1.27;;;0.57;;
14294;SDS011;7231;59.370;18.016;2023-04-01T14:33:10;1.33;;;0.40;;
14294;SDS011;7231;59.370;18.016;2023-04-01T14:35:49;2.33;;;0.52;;
14294;SDS011;7231;59.370;18.016;2023-04-01T14:38:39;1.20;;;0.73;;
14294;SDS011;7231;59.370;18.016;2023-04-01T14:41:19;4.25;;;0.93;;
14294;SDS011;7231;59.370;18.016;2023-04-01T14:49:47;7.85;;;1.10;;
14294;SDS011;7231;59.370;18.016;2023-04-01T14:52:22;2.88;;;0.85;;
14294;SDS011;7231;59.370;18.016;2023-04-01T14:54:56;5.68;;;0.63;;
14294;SDS011;7231;59.370;18.016;2023-04-01T14:57:28;2.28;;;0.55;;
14294;SDS011;7231;59.370;18.016;2023-04-01T15:00:09;2.58;;;0.70;;
14294;SDS011;7231;59.370;18.016;2023-04-01T15:02:45;3.63;;;0.80;;
14294;SDS011;7231;59.370;18.016;2023-04-01T15:05:32;2.67;;;0.60;;
14294;SDS011;7231;59.370;18.016;2023-04-01T15:08:14;2.70;;;0.63;;
14294;SDS011;7231;59.370;18.016;2023-04-01T15:10:52;4.32;;;0.65;;
14294;SDS011;7231;59.370;18.016;2023-04-01T15:16:27;3.22;;;0.60;;
14294;SDS011;7231;59.370;18.016;2023-04-01T15:19:05;4.20;;;0.73;;
14294;SDS011;7231;59.370;18.016;2023-04-01T15:21:46;1.00;;;0.60;;
14294;SDS011;7231;59.370;18.016;2023-04-01T15:24:25;1.17;;;0.60;;
14294;SDS011;7231;59.370;18.016;2023-04-01T15:27:08;0.65;;;0.45;;
14294;SDS011;7231;59.370;18.016;2023-04-01T15:29:54;4.22;;;1.23;;
14294;SDS011;7231;59.370;18.016;2023-04-01T15:32:36;3.92;;;0.60;;
14294;SDS011;7231;59.370;18.016;2023-04-01T15:35:18;7.10;;;1.00;;
14294;SDS011;7231;59.370;18.016;2023-04-01T15:37:56;1.05;;;0.52;;
14294;SDS011;7231;59.370;18.016;2023-04-01T15:40:35;1.20;;;0.70;;
14294;SDS011;7231;59.370;18.016;2023-04-01T15:43:13;5.38;;;0.68;;
14294;SDS011;7231;59.370;18.016;2023-04-01T15:45:51;3.25;;;0.95;;
14294;SDS011;7231;59.370;18.016;2023-04-01T15:48:30;4.03;;;0.70;;
14294;SDS011;7231;59.370;18.016;2023-04-01T15:51:10;3.90;;;0.70;;
14294;SDS011;7231;59.370;18.016;2023-04-01T15:56:56;0.82;;;0.43;;
14294;SDS011;7231;59.370;18.016;2023-04-01T15:59:43;2.47;;;0.60;;
14294;SDS011;7231;59.370;18.016;2023-04-01T16:02:21;3.90;;;0.80;;
14294;SDS011;7231;59.370;18.016;2023-04-01T16:04:58;2.38;;;0.60;;
14294;SDS011;7231;59.370;18.016;2023-04-01T16:07:42;5.72;;;0.88;;
14294;SDS011;7231;59.370;18.016;2023-04-01T16:10:23;2.78;;;0.60;;
14294;SDS011;7231;59.370;18.016;2023-04-01T16:13:14;3.42;;;0.68;;
14294;SDS011;7231;59.370;18.016;2023-04-01T16:15:55;3.75;;;0.80;;
14294;SDS011;7231;59.370;18.016;2023-04-01T16:18:38;2.20;;;0.77;;
14294;SDS011;7231;59.370;18.016;2023-04-01T16:21:21;2.60;;;0.70;;
14294;SDS011;7231;59.370;18.016;2023-04-01T16:24:04;4.22;;;0.75;;
14294;SDS011;7231;59.370;18.016;2023-04-01T16:26:43;2.30;;;0.68;;
14294;SDS011;7231;59.370;18.016;2023-04-01T16:29:19;4.20;;;0.90;;
14294;SDS011;7231;59.370;18.016;2023-04-01T16:31:55;4.22;;;0.60;;
14294;SDS011;7231;59.370;18.016;2023-04-01T16:34:34;3.67;;;0.73;;
14294;SDS011;7231;59.370;18.016;2023-04-01T16:37:07;4.10;;;0.70;;
14294;SDS011;7231;59.370;18.016;2023-04-01T16:39:42;2.90;;;0.68;;
14294;SDS011;7231;59.370;18.016;2023-04-01T16:42:26;2.10;;;0.60;;
14294;SDS011;7231;59.370;18.016;2023-04-01T16:45:08;5.03;;;0.60;;
14294;SDS011;7231;59.370;18.016;2023-04-01T16:47:49;7.32;;;0.80;;
14294;SDS011;7231;59.370;18.016;2023-04-01T16:50:19;6.32;;;1.10;;
14294;SDS011;7231;59.370;18.016;2023-04-01T16:52:58;2.72;;;0.70;;
14294;SDS011;7231;59.370;18.016;2023-04-01T16:55:35;4.03;;;1.10;;
14294;SDS011;7231;59.370;18.016;2023-04-01T16:58:14;3.13;;;0.60;;
14294;SDS011;7231;59.370;18.016;2023-04-01T17:00:53;3.95;;;1.00;;
14294;SDS011;7231;59.370;18.016;2023-04-01T17:03:28;2.40;;;1.20;;
14294;SDS011;7231;59.370;18.016;2023-04-01T17:06:03;2.30;;;0.83;;
14294;SDS011;7231;59.370;18.016;2023-04-01T17:08:50;3.40;;;0.87;;
14294;SDS011;7231;59.370;18.016;2023-04-01T17:11:30;3.70;;;0.70;;
14294;SDS011;7231;59.370;18.016;2023-04-01T17:14:11;3.20;;;0.93;;
14294;SDS011;7231;59.370;18.016;2023-04-01T17:16:56;7.07;;;1.10;;
14294;SDS011;7231;59.370;18.016;2023-04-01T17:22:29;3.00;;;0.87;;
14294;SDS011;7231;59.370;18.016;2023-04-01T17:25:09;3.47;;;1.03;;
14294;SDS011;7231;59.370;18.016;2023-04-01T17:27:51;4.00;;;1.00;;
14294;SDS011;7231;59.370;18.016;2023-04-01T17:30:33;5.23;;;1.00;;